sensor_id;sensor_type;location;lat;lon;timestamp;P1;durP1;ratioP1;P2;durP2;ratioP2
59374;SDS011;45172;55.006;73.460;2023-05-29T00:01:26;62.67;;;29.45;;
59374;SDS011;45172;55.006;73.460;2023-05-29T00:03:53;54.47;;;18.75;;
59374;SDS011;45172;55.006;73.460;2023-05-29T00:06:19;65.20;;;30.38;;
59374;SDS011;45172;55.006;73.460;2023-05-29T00:08:45;82.25;;;36.85;;
59374;SDS011;45172;55.006;73.460;2023-05-29T00:11:12;66.00;;;22.25;;
59374;SDS011;45172;55.006;73.460;2023-05-29T00:13:41;73.40;;;35.17;;
59374;SDS011;45172;55.006;73.460;2023-05-29T00:16:07;85.63;;;39.35;;
59374;SDS011;45172;55.006;73.460;2023-05-29T00:18:35;99.25;;;40.95;;
59374;SDS011;45172;55.006;73.460;2023-05-29T00:21:01;89.25;;;41.40;;
59374;SDS011;45172;55.006;73.460;2023-05-29T00:23:28;81.72;;;40.10;;
59374;SDS011;45172;55.006;73.460;2023-05-29T00:25:55;79.38;;;38.70;;
59374;SDS011;45172;55.006;73.460;2023-05-29T00:28:20;89.40;;;40.85;;
59374;SDS011;45172;55.006;73.460;2023-05-29T00:30:47;90.05;;;42.53;;
59374;SDS011;45172;55.006;73.460;2023-05-29T00:33:13;84.55;;;40.75;;
59374;SDS011;45172;55.006;73.460;2023-05-29T00:35:39;80.80;;;41.22;;
59374;SDS011;45172;55.006;73.460;2023-05-29T00:38:05;77.53;;;40.33;;
59374;SDS011;45172;55.006;73.460;2023-05-29T00:40:31;77.20;;;37.53;;
59374;SDS011;45172;55.006;73.460;2023-05-29T00:42:58;82.43;;;36.50;;
59374;SDS011;45172;55.006;73.460;2023-05-29T00:45:24;86.75;;;40.83;;
59374;SDS011;45172;55.006;73.460;2023-05-29T00:47:51;74.95;;;39.92;;
59374;SDS011;45172;55.006;73.460;2023-05-29T00:50:19;75.95;;;37.80;;
59374;SDS011;45172;55.006;73.460;2023-05-29T00:52:47;73.65;;;34.63;;
59374;SDS011;45172;55.006;73.460;2023-05-29T00:55:13;56.90;;;28.98;;
59374;SDS011;45172;55.006;73.460;2023-05-29T00:57:40;58.55;;;27.48;;
59374;SDS011;45172;55.006;73.460;2023-05-29T01:00:06;48.25;;;21.30;;
59374;SDS011;45172;55.006;73.460;2023-05-29T01:02:39;53.92;;;20.83;;
59374;SDS011;45172;55.006;73.460;2023-05-29T01:05:13;45.95;;;20.00;;
59374;SDS011;45172;55.006;73.460;2023-05-29T01:07:42;36.45;;;17.67;;
59374;SDS011;45172;55.006;73.460;2023-05-29T01:10:10;29.13;;;16.08;;
59374;SDS011;45172;55.006;73.460;2023-05-29T01:18:23;39.78;;;16.80;;
59374;SDS011;45172;55.006;73.460;2023-05-29T01:21:26;41.67;;;17.38;;
59374;SDS011;45172;55.006;73.460;2023-05-29T01:26:50;23.67;;;9.85;;
59374;SDS011;45172;55.006;73.460;2023-05-29T01:29:25;22.08;;;11.07;;
59374;SDS011;45172;55.006;73.460;2023-05-29T01:31:54;26.13;;;11.68;;
59374;SDS011;45172;55.006;73.460;2023-05-29T01:34:22;18.90;;;10.43;;
59374;SDS011;45172;55.006;73.460;2023-05-29T01:36:48;31.30;;;11.07;;
59374;SDS011;45172;55.006;73.460;2023-05-29T01:39:15;19.25;;;11.30;;
59374;SDS011;45172;55.006;73.460;2023-05-29T01:41:42;21.38;;;8.43;;
59374;SDS011;45172;55.006;73.460;2023-05-29T01:44:10;20.63;;;8.43;;
59374;SDS011;45172;55.006;73.460;2023-05-29T01:46:38;22.63;;;7.95;;
59374;SDS011;45172;55.006;73.460;2023-05-29T01:49:07;21.35;;;7.40;;
59374;SDS011;45172;55.006;73.460;2023-05-29T01:51:34;13.25;;;6.75;;
59374;SDS011;45172;55.006;73.460;2023-05-29T01:54:01;15.77;;;6.60;;
59374;SDS011;45172;55.006;73.460;2023-05-29T01:56:27;9.30;;;6.03;;
59374;SDS011;45172;55.006;73.460;2023-05-29T01:58:56;20.10;;;5.68;;
59374;SDS011;45172;55.006;73.460;2023-05-29T02:01:22;15.07;;;5.97;;
59374;SDS011;45172;55.006;73.460;2023-05-29T02:03:49;18.45;;;5.18;;
59374;SDS011;45172;55.006;73.460;2023-05-29T02:06:19;13.30;;;5.00;;
59374;SDS011;45172;55.006;73.460;2023-05-29T02:08:46;17.20;;;5.60;;
59374;SDS011;45172;55.006;73.460;2023-05-29T02:11:12;17.05;;;6.32;;
59374;SDS011;45172;55.006;73.460;2023-05-29T02:13:38;17.05;;;5.97;;
59374;SDS011;45172;55.006;73.460;2023-05-29T02:16:05;15.40;;;6.10;;
59374;SDS011;45172;55.006;73.460;2023-05-29T02:18:31;17.48;;;6.03;;
59374;SDS011;45172;55.006;73.460;2023-05-29T02:21:00;17.02;;;6.70;;
59374;SDS011;45172;55.006;73.460;2023-05-29T02:23:26;19.92;;;6.45;;
59374;SDS011;45172;55.006;73.460;2023-05-29T02:25:53;17.25;;;6.50;;
59374;SDS011;45172;55.006;73.460;2023-05-29T02:28:19;15.27;;;6.65;;
59374;SDS011;45172;55.006;73.460;2023-05-29T02:30:45;15.85;;;6.13;;
59374;SDS011;45172;55.006;73.460;2023-05-29T02:33:11;20.70;;;6.82;;
59374;SDS011;45172;55.006;73.460;2023-05-29T02:35:38;19.02;;;5.75;;
59374;SDS011;45172;55.006;73.460;2023-05-29T02:38:07;28.00;;;6.00;;
59374;SDS011;45172;55.006;73.460;2023-05-29T02:40:33;22.50;;;6.05;;
59374;SDS011;45172;55.006;73.460;2023-05-29T02:42:59;29.42;;;6.13;;
59374;SDS011;45172;55.006;73.460;2023-05-29T02:45:25;14.63;;;5.60;;
59374;SDS011;45172;55.006;73.460;2023-05-29T02:47:51;23.13;;;6.07;;
59374;SDS011;45172;55.006;73.460;2023-05-29T02:50:17;15.15;;;5.53;;
59374;SDS011;45172;55.006;73.460;2023-05-29T02:52:43;15.65;;;5.40;;
59374;SDS011;45172;55.006;73.460;2023-05-29T02:55:09;16.83;;;5.10;;
59374;SDS011;45172;55.006;73.460;2023-05-29T02:57:35;14.85;;;5.03;;
59374;SDS011;45172;55.006;73.460;2023-05-29T03:00:01;13.95;;;5.00;;
59374;SDS011;45172;55.006;73.460;2023-05-29T03:02:32;14.02;;;4.95;;
59374;SDS011;45172;55.006;73.460;2023-05-29T03:05:03;12.10;;;4.95;;
59374;SDS011;45172;55.006;73.460;2023-05-29T03:07:30;12.55;;;4.95;;
59374;SDS011;45172;55.006;73.460;2023-05-29T03:09:56;14.65;;;5.07;;
59374;SDS011;45172;55.006;73.460;2023-05-29T03:12:23;20.33;;;4.85;;
59374;SDS011;45172;55.006;73.460;2023-05-29T03:14:49;20.58;;;4.43;;
59374;SDS011;45172;55.006;73.460;2023-05-29T03:17:15;15.15;;;4.90;;
59374;SDS011;45172;55.006;73.460;2023-05-29T03:19:41;11.57;;;4.65;;
59374;SDS011;45172;55.006;73.460;2023-05-29T03:22:07;11.32;;;4.57;;
59374;SDS011;45172;55.006;73.460;2023-05-29T03:24:33;12.30;;;4.72;;
59374;SDS011;45172;55.006;73.460;2023-05-29T03:27:01;20.02;;;5.40;;
59374;SDS011;45172;55.006;73.460;2023-05-29T03:29:29;17.58;;;5.47;;
59374;SDS011;45172;55.006;73.460;2023-05-29T03:31:57;9.35;;;4.50;;
59374;SDS011;45172;55.006;73.460;2023-05-29T03:34:25;25.35;;;5.00;;
59374;SDS011;45172;55.006;73.460;2023-05-29T03:36:52;13.18;;;4.63;;
59374;SDS011;45172;55.006;73.460;2023-05-29T03:39:18;18.92;;;4.63;;
59374;SDS011;45172;55.006;73.460;2023-05-29T03:41:44;16.77;;;4.90;;
59374;SDS011;45172;55.006;73.460;2023-05-29T03:44:10;10.95;;;4.95;;
59374;SDS011;45172;55.006;73.460;2023-05-29T03:46:36;14.27;;;4.50;;
59374;SDS011;45172;55.006;73.460;2023-05-29T03:49:02;15.35;;;4.47;;
59374;SDS011;45172;55.006;73.460;2023-05-29T03:51:28;14.68;;;4.30;;
59374;SDS011;45172;55.006;73.460;2023-05-29T03:53:54;8.40;;;4.55;;
59374;SDS011;45172;55.006;73.460;2023-05-29T03:56:20;12.13;;;3.92;;
59374;SDS011;45172;55.006;73.460;2023-05-29T03:58:47;17.52;;;4.53;;
59374;SDS011;45172;55.006;73.460;2023-05-29T04:01:13;13.07;;;4.72;;
59374;SDS011;45172;55.006;73.460;2023-05-29T04:03:40;12.25;;;4.40;;
59374;SDS011;45172;55.006;73.460;2023-05-29T04:06:06;13.35;;;4.50;;
59374;SDS011;45172;55.006;73.460;2023-05-29T04:08:32;19.25;;;5.00;;
59374;SDS011;45172;55.006;73.460;2023-05-29T04:10:59;17.35;;;4.45;;
59374;SDS011;45172;55.006;73.460;2023-05-29T04:13:24;12.40;;;4.70;;
59374;SDS011;45172;55.006;73.460;2023-05-29T04:15:50;14.05;;;4.65;;
59374;SDS011;45172;55.006;73.460;2023-05-29T04:18:18;13.88;;;4.50;;
59374;SDS011;45172;55.006;73.460;2023-05-29T04:20:44;14.60;;;4.65;;
59374;SDS011;45172;55.006;73.460;2023-05-29T04:23:13;19.25;;;4.82;;
59374;SDS011;45172;55.006;73.460;2023-05-29T04:25:39;15.68;;;4.82;;
59374;SDS011;45172;55.006;73.460;2023-05-29T04:28:05;21.27;;;4.32;;
59374;SDS011;45172;55.006;73.460;2023-05-29T04:30:31;16.92;;;4.50;;
59374;SDS011;45172;55.006;73.460;2023-05-29T04:32:59;16.40;;;4.78;;
59374;SDS011;45172;55.006;73.460;2023-05-29T04:35:25;12.25;;;4.13;;
59374;SDS011;45172;55.006;73.460;2023-05-29T04:37:55;13.43;;;4.30;;
59374;SDS011;45172;55.006;73.460;2023-05-29T04:40:22;14.00;;;4.15;;
59374;SDS011;45172;55.006;73.460;2023-05-29T04:42:49;11.73;;;3.92;;
59374;SDS011;45172;55.006;73.460;2023-05-29T04:45:19;12.40;;;4.55;;
59374;SDS011;45172;55.006;73.460;2023-05-29T04:47:46;17.55;;;4.55;;
59374;SDS011;45172;55.006;73.460;2023-05-29T04:50:12;15.68;;;4.82;;
59374;SDS011;45172;55.006;73.460;2023-05-29T04:52:39;10.82;;;4.78;;
59374;SDS011;45172;55.006;73.460;2023-05-29T04:55:05;22.83;;;5.18;;
59374;SDS011;45172;55.006;73.460;2023-05-29T04:57:31;22.65;;;5.78;;
59374;SDS011;45172;55.006;73.460;2023-05-29T04:59:58;23.98;;;4.90;;
59374;SDS011;45172;55.006;73.460;2023-05-29T05:02:24;15.80;;;4.63;;
59374;SDS011;45172;55.006;73.460;2023-05-29T05:04:50;21.45;;;4.88;;
59374;SDS011;45172;55.006;73.460;2023-05-29T05:07:16;21.77;;;5.75;;
59374;SDS011;45172;55.006;73.460;2023-05-29T05:09:42;21.52;;;6.35;;
59374;SDS011;45172;55.006;73.460;2023-05-29T05:12:10;16.00;;;7.40;;
59374;SDS011;45172;55.006;73.460;2023-05-29T05:14:36;14.18;;;5.72;;
59374;SDS011;45172;55.006;73.460;2023-05-29T05:17:03;26.65;;;7.05;;
59374;SDS011;45172;55.006;73.460;2023-05-29T05:19:30;21.83;;;6.65;;
59374;SDS011;45172;55.006;73.460;2023-05-29T05:21:57;33.78;;;7.75;;
59374;SDS011;45172;55.006;73.460;2023-05-29T05:24:23;33.55;;;8.75;;
59374;SDS011;45172;55.006;73.460;2023-05-29T05:26:49;31.80;;;8.30;;
59374;SDS011;45172;55.006;73.460;2023-05-29T05:29:15;28.77;;;7.85;;
59374;SDS011;45172;55.006;73.460;2023-05-29T05:31:41;34.90;;;8.07;;
59374;SDS011;45172;55.006;73.460;2023-05-29T05:34:07;116.63;;;10.90;;
59374;SDS011;45172;55.006;73.460;2023-05-29T05:36:34;38.88;;;8.60;;
59374;SDS011;45172;55.006;73.460;2023-05-29T05:39:00;28.02;;;7.60;;
59374;SDS011;45172;55.006;73.460;2023-05-29T05:41:26;35.90;;;7.05;;
59374;SDS011;45172;55.006;73.460;2023-05-29T05:43:52;31.02;;;6.90;;
59374;SDS011;45172;55.006;73.460;2023-05-29T05:46:18;25.67;;;6.07;;
59374;SDS011;45172;55.006;73.460;2023-05-29T05:48:44;13.55;;;4.88;;
59374;SDS011;45172;55.006;73.460;2023-05-29T05:51:10;13.32;;;3.83;;
59374;SDS011;45172;55.006;73.460;2023-05-29T05:53:37;8.63;;;3.70;;
59374;SDS011;45172;55.006;73.460;2023-05-29T05:56:05;5.05;;;2.95;;
59374;SDS011;45172;55.006;73.460;2023-05-29T05:58:31;6.97;;;3.00;;
59374;SDS011;45172;55.006;73.460;2023-05-29T06:00:57;8.95;;;3.15;;
59374;SDS011;45172;55.006;73.460;2023-05-29T06:03:24;11.77;;;3.28;;
59374;SDS011;45172;55.006;73.460;2023-05-29T06:05:50;7.35;;;3.55;;
59374;SDS011;45172;55.006;73.460;2023-05-29T06:08:17;13.35;;;3.55;;
59374;SDS011;45172;55.006;73.460;2023-05-29T06:10:43;8.25;;;3.95;;
59374;SDS011;45172;55.006;73.460;2023-05-29T06:13:11;8.25;;;3.47;;
59374;SDS011;45172;55.006;73.460;2023-05-29T06:15:37;7.18;;;3.13;;
59374;SDS011;45172;55.006;73.460;2023-05-29T06:18:04;8.90;;;2.80;;
59374;SDS011;45172;55.006;73.460;2023-05-29T06:20:30;7.90;;;3.42;;
59374;SDS011;45172;55.006;73.460;2023-05-29T06:22:56;6.72;;;3.35;;
59374;SDS011;45172;55.006;73.460;2023-05-29T06:25:23;10.65;;;2.90;;
59374;SDS011;45172;55.006;73.460;2023-05-29T06:27:55;4.70;;;3.47;;
59374;SDS011;45172;55.006;73.460;2023-05-29T06:30:21;13.85;;;3.75;;
59374;SDS011;45172;55.006;73.460;2023-05-29T06:32:47;16.05;;;3.90;;
59374;SDS011;45172;55.006;73.460;2023-05-29T06:35:13;9.27;;;3.85;;
59374;SDS011;45172;55.006;73.460;2023-05-29T06:37:39;25.95;;;4.65;;
59374;SDS011;45172;55.006;73.460;2023-05-29T06:40:06;10.48;;;4.00;;
59374;SDS011;45172;55.006;73.460;2023-05-29T06:42:33;7.82;;;4.53;;
59374;SDS011;45172;55.006;73.460;2023-05-29T06:45:08;13.18;;;4.53;;
59374;SDS011;45172;55.006;73.460;2023-05-29T06:47:35;16.77;;;4.28;;
59374;SDS011;45172;55.006;73.460;2023-05-29T06:50:01;13.07;;;4.63;;
59374;SDS011;45172;55.006;73.460;2023-05-29T06:52:27;12.75;;;4.85;;
59374;SDS011;45172;55.006;73.460;2023-05-29T06:54:53;12.90;;;5.25;;
59374;SDS011;45172;55.006;73.460;2023-05-29T06:57:20;11.98;;;5.10;;
59374;SDS011;45172;55.006;73.460;2023-05-29T06:59:46;16.95;;;5.55;;
59374;SDS011;45172;55.006;73.460;2023-05-29T07:02:12;12.25;;;5.90;;
59374;SDS011;45172;55.006;73.460;2023-05-29T07:04:38;14.90;;;6.05;;
59374;SDS011;45172;55.006;73.460;2023-05-29T07:07:04;18.63;;;6.80;;
59374;SDS011;45172;55.006;73.460;2023-05-29T07:09:30;16.23;;;6.88;;
59374;SDS011;45172;55.006;73.460;2023-05-29T07:11:56;17.50;;;6.25;;
59374;SDS011;45172;55.006;73.460;2023-05-29T07:14:22;12.60;;;5.55;;
59374;SDS011;45172;55.006;73.460;2023-05-29T07:16:51;16.02;;;5.97;;
59374;SDS011;45172;55.006;73.460;2023-05-29T07:19:17;13.32;;;6.00;;
59374;SDS011;45172;55.006;73.460;2023-05-29T07:21:43;13.48;;;5.22;;
59374;SDS011;45172;55.006;73.460;2023-05-29T07:24:09;12.95;;;5.80;;
59374;SDS011;45172;55.006;73.460;2023-05-29T07:26:35;12.50;;;5.15;;
59374;SDS011;45172;55.006;73.460;2023-05-29T07:29:01;13.63;;;5.70;;
59374;SDS011;45172;55.006;73.460;2023-05-29T07:31:27;13.77;;;5.60;;
59374;SDS011;45172;55.006;73.460;2023-05-29T07:33:54;18.35;;;6.10;;
59374;SDS011;45172;55.006;73.460;2023-05-29T07:36:20;16.98;;;5.30;;
59374;SDS011;45172;55.006;73.460;2023-05-29T07:38:46;10.50;;;5.38;;
59374;SDS011;45172;55.006;73.460;2023-05-29T07:41:14;12.98;;;5.32;;
59374;SDS011;45172;55.006;73.460;2023-05-29T07:43:42;14.93;;;5.63;;
59374;SDS011;45172;55.006;73.460;2023-05-29T07:46:11;11.57;;;5.63;;
59374;SDS011;45172;55.006;73.460;2023-05-29T07:48:36;13.25;;;5.50;;
59374;SDS011;45172;55.006;73.460;2023-05-29T07:51:02;13.65;;;5.28;;
59374;SDS011;45172;55.006;73.460;2023-05-29T07:53:30;10.07;;;4.15;;
59374;SDS011;45172;55.006;73.460;2023-05-29T07:55:55;8.52;;;3.85;;
59374;SDS011;45172;55.006;73.460;2023-05-29T07:58:22;11.95;;;3.72;;
59374;SDS011;45172;55.006;73.460;2023-05-29T08:00:48;10.80;;;3.90;;
59374;SDS011;45172;55.006;73.460;2023-05-29T08:03:14;8.15;;;3.97;;
59374;SDS011;45172;55.006;73.460;2023-05-29T08:05:40;8.35;;;3.67;;
59374;SDS011;45172;55.006;73.460;2023-05-29T08:08:06;12.20;;;3.95;;
59374;SDS011;45172;55.006;73.460;2023-05-29T08:10:33;8.45;;;4.00;;
59374;SDS011;45172;55.006;73.460;2023-05-29T08:12:59;7.35;;;4.32;;
59374;SDS011;45172;55.006;73.460;2023-05-29T08:15:25;8.43;;;4.40;;
59374;SDS011;45172;55.006;73.460;2023-05-29T08:17:51;13.20;;;3.80;;
59374;SDS011;45172;55.006;73.460;2023-05-29T08:20:17;6.13;;;3.70;;
59374;SDS011;45172;55.006;73.460;2023-05-29T08:22:45;9.23;;;3.80;;
59374;SDS011;45172;55.006;73.460;2023-05-29T08:25:11;8.80;;;4.00;;
59374;SDS011;45172;55.006;73.460;2023-05-29T08:27:37;12.82;;;4.65;;
59374;SDS011;45172;55.006;73.460;2023-05-29T08:30:03;26.42;;;4.43;;
59374;SDS011;45172;55.006;73.460;2023-05-29T08:32:30;12.55;;;4.05;;
59374;SDS011;45172;55.006;73.460;2023-05-29T08:34:56;11.10;;;4.05;;
59374;SDS011;45172;55.006;73.460;2023-05-29T08:37:22;15.82;;;4.40;;
59374;SDS011;45172;55.006;73.460;2023-05-29T08:39:49;14.77;;;4.30;;
59374;SDS011;45172;55.006;73.460;2023-05-29T08:42:24;14.23;;;4.40;;
59374;SDS011;45172;55.006;73.460;2023-05-29T08:44:56;10.32;;;4.28;;
59374;SDS011;45172;55.006;73.460;2023-05-29T08:47:27;9.60;;;4.13;;
59374;SDS011;45172;55.006;73.460;2023-05-29T08:50:02;13.95;;;4.60;;
59374;SDS011;45172;55.006;73.460;2023-05-29T08:52:29;10.27;;;3.95;;
59374;SDS011;45172;55.006;73.460;2023-05-29T08:55:01;13.35;;;4.57;;
59374;SDS011;45172;55.006;73.460;2023-05-29T08:57:28;12.68;;;4.55;;
59374;SDS011;45172;55.006;73.460;2023-05-29T08:59:55;9.98;;;4.10;;
59374;SDS011;45172;55.006;73.460;2023-05-29T09:02:22;10.80;;;4.00;;
59374;SDS011;45172;55.006;73.460;2023-05-29T09:04:48;8.90;;;3.92;;
59374;SDS011;45172;55.006;73.460;2023-05-29T09:07:15;11.77;;;4.40;;
59374;SDS011;45172;55.006;73.460;2023-05-29T09:09:42;11.80;;;4.13;;
59374;SDS011;45172;55.006;73.460;2023-05-29T09:12:08;10.80;;;3.90;;
59374;SDS011;45172;55.006;73.460;2023-05-29T09:17:03;14.18;;;3.95;;
59374;SDS011;45172;55.006;73.460;2023-05-29T09:19:31;11.07;;;4.07;;
59374;SDS011;45172;55.006;73.460;2023-05-29T09:22:00;15.95;;;4.53;;
59374;SDS011;45172;55.006;73.460;2023-05-29T09:24:34;16.08;;;4.53;;
59374;SDS011;45172;55.006;73.460;2023-05-29T09:27:17;13.20;;;4.68;;
59374;SDS011;45172;55.006;73.460;2023-05-29T09:29:51;11.98;;;4.75;;
59374;SDS011;45172;55.006;73.460;2023-05-29T09:32:17;20.23;;;10.27;;
59374;SDS011;45172;55.006;73.460;2023-05-29T09:34:46;19.58;;;8.23;;
59374;SDS011;45172;55.006;73.460;2023-05-29T09:37:12;19.38;;;5.03;;
59374;SDS011;45172;55.006;73.460;2023-05-29T09:42:11;23.20;;;4.90;;
59374;SDS011;45172;55.006;73.460;2023-05-29T09:44:37;17.15;;;4.70;;
59374;SDS011;45172;55.006;73.460;2023-05-29T09:47:04;10.90;;;4.50;;
59374;SDS011;45172;55.006;73.460;2023-05-29T09:49:31;12.45;;;4.68;;
59374;SDS011;45172;55.006;73.460;2023-05-29T09:51:57;18.85;;;4.93;;
59374;SDS011;45172;55.006;73.460;2023-05-29T09:54:27;15.82;;;4.93;;
59374;SDS011;45172;55.006;73.460;2023-05-29T09:56:57;15.10;;;4.70;;
59374;SDS011;45172;55.006;73.460;2023-05-29T09:59:24;7.47;;;4.57;;
59374;SDS011;45172;55.006;73.460;2023-05-29T10:01:56;12.40;;;4.63;;
59374;SDS011;45172;55.006;73.460;2023-05-29T10:04:39;11.07;;;5.10;;
59374;SDS011;45172;55.006;73.460;2023-05-29T10:07:49;11.07;;;4.28;;
59374;SDS011;45172;55.006;73.460;2023-05-29T10:10:04;21.27;;;5.05;;
59374;SDS011;45172;55.006;73.460;2023-05-29T10:12:34;10.93;;;4.68;;
59374;SDS011;45172;55.006;73.460;2023-05-29T10:15:05;15.02;;;4.50;;
59374;SDS011;45172;55.006;73.460;2023-05-29T10:17:36;10.77;;;5.07;;
59374;SDS011;45172;55.006;73.460;2023-05-29T10:20:05;16.77;;;5.05;;
59374;SDS011;45172;55.006;73.460;2023-05-29T10:22:38;11.60;;;4.88;;
59374;SDS011;45172;55.006;73.460;2023-05-29T10:25:10;11.05;;;4.43;;
59374;SDS011;45172;55.006;73.460;2023-05-29T10:27:38;8.10;;;4.38;;
59374;SDS011;45172;55.006;73.460;2023-05-29T10:30:10;14.93;;;4.82;;
59374;SDS011;45172;55.006;73.460;2023-05-29T10:35:10;12.20;;;5.97;;
59374;SDS011;45172;55.006;73.460;2023-05-29T10:38:01;11.02;;;5.43;;
59374;SDS011;45172;55.006;73.460;2023-05-29T10:40:45;13.15;;;5.53;;
59374;SDS011;45172;55.006;73.460;2023-05-29T10:43:34;10.60;;;5.88;;
59374;SDS011;45172;55.006;73.460;2023-05-29T10:46:00;11.27;;;5.57;;
59374;SDS011;45172;55.006;73.460;2023-05-29T10:48:37;9.07;;;5.00;;
59374;SDS011;45172;55.006;73.460;2023-05-29T10:51:07;8.15;;;4.70;;
59374;SDS011;45172;55.006;73.460;2023-05-29T10:53:34;9.35;;;6.00;;
59374;SDS011;45172;55.006;73.460;2023-05-29T10:56:07;17.92;;;5.95;;
59374;SDS011;45172;55.006;73.460;2023-05-29T10:58:35;12.43;;;5.20;;
59374;SDS011;45172;55.006;73.460;2023-05-29T11:01:01;12.65;;;5.10;;
59374;SDS011;45172;55.006;73.460;2023-05-29T11:03:30;7.93;;;4.60;;
59374;SDS011;45172;55.006;73.460;2023-05-29T11:14:05;18.17;;;8.55;;
59374;SDS011;45172;55.006;73.460;2023-05-29T11:18:59;15.63;;;6.35;;
59374;SDS011;45172;55.006;73.460;2023-05-29T11:24:23;9.70;;;5.22;;
59374;SDS011;45172;55.006;73.460;2023-05-29T11:26:51;14.57;;;5.20;;
59374;SDS011;45172;55.006;73.460;2023-05-29T11:29:22;13.35;;;7.03;;
59374;SDS011;45172;55.006;73.460;2023-05-29T11:31:53;16.77;;;7.85;;
59374;SDS011;45172;55.006;73.460;2023-05-29T11:34:23;17.10;;;7.22;;
59374;SDS011;45172;55.006;73.460;2023-05-29T11:36:53;13.82;;;5.90;;
59374;SDS011;45172;55.006;73.460;2023-05-29T11:39:19;16.70;;;5.72;;
59374;SDS011;45172;55.006;73.460;2023-05-29T11:41:46;13.05;;;5.80;;
59374;SDS011;45172;55.006;73.460;2023-05-29T11:44:18;18.35;;;6.10;;
59374;SDS011;45172;55.006;73.460;2023-05-29T11:47:09;22.02;;;5.35;;
59374;SDS011;45172;55.006;73.460;2023-05-29T11:49:36;8.90;;;5.25;;
59374;SDS011;45172;55.006;73.460;2023-05-29T11:52:07;15.45;;;5.03;;
59374;SDS011;45172;55.006;73.460;2023-05-29T13:42:45;23.83;;;8.43;;
59374;SDS011;45172;55.006;73.460;2023-05-29T13:45:11;22.33;;;9.63;;
59374;SDS011;45172;55.006;73.460;2023-05-29T13:47:38;46.22;;;9.10;;
59374;SDS011;45172;55.006;73.460;2023-05-29T13:50:04;55.20;;;9.85;;
59374;SDS011;45172;55.006;73.460;2023-05-29T13:52:32;22.95;;;8.23;;
59374;SDS011;45172;55.006;73.460;2023-05-29T13:54:58;33.80;;;7.90;;
59374;SDS011;45172;55.006;73.460;2023-05-29T13:57:30;28.58;;;8.40;;
59374;SDS011;45172;55.006;73.460;2023-05-29T13:59:56;27.27;;;8.15;;
59374;SDS011;45172;55.006;73.460;2023-05-29T14:02:23;31.33;;;8.98;;
59374;SDS011;45172;55.006;73.460;2023-05-29T14:04:50;30.88;;;9.27;;
59374;SDS011;45172;55.006;73.460;2023-05-29T14:07:16;26.83;;;9.65;;
59374;SDS011;45172;55.006;73.460;2023-05-29T14:09:43;26.17;;;10.07;;
59374;SDS011;45172;55.006;73.460;2023-05-29T14:12:08;31.88;;;11.05;;
59374;SDS011;45172;55.006;73.460;2023-05-29T14:14:35;27.65;;;9.43;;
59374;SDS011;45172;55.006;73.460;2023-05-29T14:17:01;24.83;;;10.45;;
59374;SDS011;45172;55.006;73.460;2023-05-29T14:19:28;29.92;;;10.75;;
59374;SDS011;45172;55.006;73.460;2023-05-29T14:21:54;28.38;;;11.85;;
59374;SDS011;45172;55.006;73.460;2023-05-29T14:24:20;34.17;;;12.23;;
59374;SDS011;45172;55.006;73.460;2023-05-29T14:26:47;33.78;;;12.13;;
59374;SDS011;45172;55.006;73.460;2023-05-29T14:29:13;32.65;;;12.90;;
59374;SDS011;45172;55.006;73.460;2023-05-29T14:31:43;33.97;;;12.50;;
59374;SDS011;45172;55.006;73.460;2023-05-29T14:34:10;30.45;;;12.90;;
59374;SDS011;45172;55.006;73.460;2023-05-29T14:36:37;39.15;;;13.10;;
59374;SDS011;45172;55.006;73.460;2023-05-29T14:39:05;29.13;;;13.52;;
59374;SDS011;45172;55.006;73.460;2023-05-29T14:41:32;31.38;;;13.60;;
59374;SDS011;45172;55.006;73.460;2023-05-29T14:44:00;27.50;;;12.98;;
59374;SDS011;45172;55.006;73.460;2023-05-29T14:46:26;35.38;;;13.48;;
59374;SDS011;45172;55.006;73.460;2023-05-29T14:48:57;27.98;;;13.98;;
59374;SDS011;45172;55.006;73.460;2023-05-29T14:51:24;30.15;;;14.40;;
59374;SDS011;45172;55.006;73.460;2023-05-29T14:53:50;23.88;;;14.15;;
59374;SDS011;45172;55.006;73.460;2023-05-29T14:56:19;33.63;;;14.07;;
59374;SDS011;45172;55.006;73.460;2023-05-29T14:58:45;26.45;;;14.45;;
59374;SDS011;45172;55.006;73.460;2023-05-29T15:01:15;26.17;;;13.95;;
59374;SDS011;45172;55.006;73.460;2023-05-29T15:03:42;34.38;;;14.48;;
59374;SDS011;45172;55.006;73.460;2023-05-29T15:06:08;36.03;;;15.43;;
59374;SDS011;45172;55.006;73.460;2023-05-29T15:08:38;39.40;;;15.55;;
59374;SDS011;45172;55.006;73.460;2023-05-29T15:11:05;35.65;;;15.63;;
59374;SDS011;45172;55.006;73.460;2023-05-29T15:13:32;32.65;;;16.77;;
59374;SDS011;45172;55.006;73.460;2023-05-29T15:15:58;35.25;;;15.40;;
59374;SDS011;45172;55.006;73.460;2023-05-29T15:18:25;30.25;;;15.68;;
59374;SDS011;45172;55.006;73.460;2023-05-29T15:20:52;32.53;;;15.73;;
59374;SDS011;45172;55.006;73.460;2023-05-29T15:23:18;35.25;;;15.07;;
59374;SDS011;45172;55.006;73.460;2023-05-29T15:25:48;29.30;;;15.05;;
59374;SDS011;45172;55.006;73.460;2023-05-29T15:28:16;36.03;;;15.48;;
59374;SDS011;45172;55.006;73.460;2023-05-29T15:30:43;30.73;;;15.52;;
59374;SDS011;45172;55.006;73.460;2023-05-29T15:33:09;41.40;;;22.00;;
59374;SDS011;45172;55.006;73.460;2023-05-29T15:35:39;51.10;;;33.25;;
59374;SDS011;45172;55.006;73.460;2023-05-29T15:38:06;44.15;;;23.27;;
59374;SDS011;45172;55.006;73.460;2023-05-29T15:40:32;37.58;;;25.80;;
59374;SDS011;45172;55.006;73.460;2023-05-29T15:42:59;59.72;;;33.40;;
59374;SDS011;45172;55.006;73.460;2023-05-29T15:45:25;53.65;;;26.75;;
59374;SDS011;45172;55.006;73.460;2023-05-29T15:47:52;45.58;;;24.20;;
59374;SDS011;45172;55.006;73.460;2023-05-29T15:50:18;35.50;;;18.45;;
59374;SDS011;45172;55.006;73.460;2023-05-29T15:52:45;36.58;;;17.90;;
59374;SDS011;45172;55.006;73.460;2023-05-29T15:55:15;35.25;;;18.90;;
59374;SDS011;45172;55.006;73.460;2023-05-29T15:57:42;30.40;;;16.15;;
59374;SDS011;45172;55.006;73.460;2023-05-29T16:00:11;31.38;;;18.20;;
59374;SDS011;45172;55.006;73.460;2023-05-29T16:02:40;27.30;;;15.93;;
59374;SDS011;45172;55.006;73.460;2023-05-29T16:05:06;35.80;;;17.60;;
59374;SDS011;45172;55.006;73.460;2023-05-29T16:07:33;42.20;;;20.92;;
59374;SDS011;45172;55.006;73.460;2023-05-29T16:10:01;33.78;;;22.92;;
59374;SDS011;45172;55.006;73.460;2023-05-29T16:12:27;47.65;;;23.52;;
59374;SDS011;45172;55.006;73.460;2023-05-29T16:14:54;40.30;;;24.15;;
59374;SDS011;45172;55.006;73.460;2023-05-29T16:17:20;52.00;;;26.08;;
59374;SDS011;45172;55.006;73.460;2023-05-29T16:19:47;34.20;;;22.08;;
59374;SDS011;45172;55.006;73.460;2023-05-29T16:22:13;29.75;;;19.50;;
59374;SDS011;45172;55.006;73.460;2023-05-29T16:24:39;28.90;;;16.98;;
59374;SDS011;45172;55.006;73.460;2023-05-29T16:27:05;31.95;;;19.90;;
59374;SDS011;45172;55.006;73.460;2023-05-29T16:29:32;28.25;;;19.50;;
59374;SDS011;45172;55.006;73.460;2023-05-29T16:31:58;36.28;;;18.92;;
59374;SDS011;45172;55.006;73.460;2023-05-29T16:34:24;29.67;;;19.48;;
59374;SDS011;45172;55.006;73.460;2023-05-29T16:36:51;26.33;;;16.73;;
59374;SDS011;45172;55.006;73.460;2023-05-29T16:39:17;28.40;;;17.15;;